Time;durP1;ratioP1;P1;durP2;ratioP2;P2;SDS_P1;SDS_P2;PMS_P1;PMS_P2;Temp;Humidity;BMP_temperature;BMP_pressure;BME280_temperature;BME280_humidity;BME280_pressure;Samples;Min_cycle;Max_cycle;Signal;HPM_P1;HPM_P2
2023/12/04 00:02:07;;;;;;;23.83;12.18;;;;;;;;;;4956504;29;20226;-84
2023/12/04 00:05:11;;;;;;;20.45;11.82;;;;;;;;;;4956844;29;20195;-86
2023/12/04 00:08:17;;;;;;;19.55;11.50;;;;;;;;;;4957166;29;20218;-84
2023/12/04 00:11:21;;;;;;;22.85;12.55;;;;;;;;;;4956558;28;20230;-84
2023/12/04 00:14:25;;;;;;;22.85;11.85;;;;;;;;;;4957261;29;20210;-84
2023/12/04 00:17:30;;;;;;;19.38;11.55;;;;;;;;;;4957366;29;20190;-85
2023/12/04 00:20:34;;;;;;;20.05;12.13;;;;;;;;;;4924080;29;20738;-84
2023/12/04 00:23:38;;;;;;;20.67;12.32;;;;;;;;;;4958929;29;20187;-84
2023/12/04 00:26:43;;;;;;;18.55;11.70;;;;;;;;;;4946889;29;20656;-84
2023/12/04 00:29:47;;;;;;;19.63;11.38;;;;;;;;;;4957707;29;20248;-84
2023/12/04 00:32:51;;;;;;;18.33;11.02;;;;;;;;;;4947145;29;20195;-84
2023/12/04 00:35:56;;;;;;;19.65;11.85;;;;;;;;;;4957754;29;20309;-84
2023/12/04 00:39:01;;;;;;;18.70;10.75;;;;;;;;;;4958339;29;20183;-84
2023/12/04 00:42:05;;;;;;;19.83;11.52;;;;;;;;;;4957816;29;20592;-83
2023/12/04 00:45:09;;;;;;;20.55;11.13;;;;;;;;;;4958768;29;20545;-85
2023/12/04 00:48:13;;;;;;;20.65;11.48;;;;;;;;;;4959168;29;20699;-83
2023/12/04 00:51:18;;;;;;;23.48;12.70;;;;;;;;;;4958542;29;20222;-84
2023/12/04 00:54:22;;;;;;;21.52;11.30;;;;;;;;;;4952430;29;20556;-85
2023/12/04 00:57:26;;;;;;;24.88;12.38;;;;;;;;;;4962644;28;20191;-86
2023/12/04 01:00:30;;;;;;;22.35;12.23;;;;;;;;;;4954929;29;20222;-84
2023/12/04 01:03:34;;;;;;;21.52;11.27;;;;;;;;;;4954837;29;20655;-84
2023/12/04 01:06:39;;;;;;;20.15;10.73;;;;;;;;;;4966225;29;20191;-86
2023/12/04 01:09:43;;;;;;;22.95;12.73;;;;;;;;;;4965692;29;20226;-84
2023/12/04 01:12:48;;;;;;;24.63;12.85;;;;;;;;;;4965752;29;20191;-84
2023/12/04 01:15:52;;;;;;;24.23;11.15;;;;;;;;;;4965818;29;20191;-83
2023/12/04 01:18:56;;;;;;;24.95;12.90;;;;;;;;;;4943812;29;20191;-85
2023/12/04 01:22:01;;;;;;;23.40;12.00;;;;;;;;;;4944206;29;20230;-86
2023/12/04 01:25:06;;;;;;;21.08;11.90;;;;;;;;;;4966159;29;20190;-86
2023/12/04 01:28:10;;;;;;;23.63;12.32;;;;;;;;;;4965383;29;20195;-84
2023/12/04 01:31:14;;;;;;;25.55;12.35;;;;;;;;;;4954977;29;20230;-86
2023/12/04 01:34:18;;;;;;;23.05;11.80;;;;;;;;;;4966553;29;20195;-85
2023/12/04 01:37:23;;;;;;;20.20;11.05;;;;;;;;;;4966506;29;20191;-85
2023/12/04 01:40:27;;;;;;;20.75;11.48;;;;;;;;;;4955418;29;20222;-86
2023/12/04 01:43:32;;;;;;;21.25;11.27;;;;;;;;;;4966156;29;20190;-84
2023/12/04 01:46:37;;;;;;;18.63;10.57;;;;;;;;;;4965834;29;20195;-86
2023/12/04 01:49:41;;;;;;;23.33;12.48;;;;;;;;;;4965433;29;20223;-85
2023/12/04 01:52:46;;;;;;;21.58;10.95;;;;;;;;;;4967197;29;20187;-84
2023/12/04 01:55:51;;;;;;;20.48;11.05;;;;;;;;;;4958120;29;20186;-84
2023/12/04 01:58:55;;;;;;;22.63;10.98;;;;;;;;;;4957530;29;20186;-84
2023/12/04 02:02:00;;;;;;;21.00;11.02;;;;;;;;;;4968710;29;20238;-84
2023/12/04 02:05:08;;;;;;;21.98;10.77;;;;;;;;;;4967521;29;20190;-83
2023/12/04 02:08:13;;;;;;;19.33;10.95;;;;;;;;;;4956277;29;20190;-83
2023/12/04 02:11:17;;;;;;;23.08;11.48;;;;;;;;;;4966067;29;20286;-84
2023/12/04 02:14:21;;;;;;;22.02;12.10;;;;;;;;;;4966587;29;20194;-84
2023/12/04 02:17:27;;;;;;;21.15;11.43;;;;;;;;;;4967287;29;20191;-84
2023/12/04 02:20:35;;;;;;;19.33;11.57;;;;;;;;;;4968302;29;20227;-84
2023/12/04 02:23:40;;;;;;;24.05;11.25;;;;;;;;;;4970141;29;20194;-84
2023/12/04 02:26:59;;;;;;;15.65;9.93;;;;;;;;;;4970800;29;20683;-85
2023/12/04 02:30:05;;;;;;;16.58;9.25;;;;;;;;;;4970321;29;20207;-84
2023/12/04 02:33:13;;;;;;;18.58;10.38;;;;;;;;;;4968026;29;20188;-84
2023/12/04 02:36:19;;;;;;;17.77;10.25;;;;;;;;;;4956073;29;20186;-84
2023/12/04 02:39:23;;;;;;;21.00;11.77;;;;;;;;;;4966698;29;20191;-84
2023/12/04 02:42:28;;;;;;;21.40;11.02;;;;;;;;;;4955699;29;20194;-84
2023/12/04 02:45:33;;;;;;;20.52;10.40;;;;;;;;;;4966865;29;20190;-84
2023/12/04 02:48:37;;;;;;;20.50;10.77;;;;;;;;;;4955709;29;20643;-84
2023/12/04 02:51:42;;;;;;;18.70;10.50;;;;;;;;;;4966699;29;20226;-84
2023/12/04 02:54:46;;;;;;;18.23;9.90;;;;;;;;;;4966297;29;20195;-84
2023/12/04 02:57:50;;;;;;;16.67;9.82;;;;;;;;;;4966668;29;20190;-84
2023/12/04 03:00:55;;;;;;;17.45;10.40;;;;;;;;;;4966172;29;20215;-83
2023/12/04 03:03:59;;;;;;;20.45;11.35;;;;;;;;;;4965254;29;20199;-84
2023/12/04 03:07:03;;;;;;;18.15;9.65;;;;;;;;;;4965555;29;20190;-84
2023/12/04 03:10:08;;;;;;;18.73;10.15;;;;;;;;;;4964994;28;20211;-84
2023/12/04 03:13:12;;;;;;;19.23;10.63;;;;;;;;;;4966312;29;20187;-84
2023/12/04 03:16:19;;;;;;;20.00;10.60;;;;;;;;;;4955283;29;20199;-83
2023/12/04 03:19:24;;;;;;;17.48;10.13;;;;;;;;;;4955155;29;20183;-83
2023/12/04 03:22:28;;;;;;;17.13;10.13;;;;;;;;;;4966068;29;20186;-83
2023/12/04 03:25:32;;;;;;;20.92;10.27;;;;;;;;;;4966597;29;20191;-83
2023/12/04 03:28:38;;;;;;;20.02;9.80;;;;;;;;;;4965735;29;20252;-83
2023/12/04 03:31:42;;;;;;;19.45;10.27;;;;;;;;;;4964587;29;20693;-83
2023/12/04 03:34:47;;;;;;;20.05;10.50;;;;;;;;;;4965013;29;20211;-83
2023/12/04 03:37:52;;;;;;;16.30;10.10;;;;;;;;;;4965600;29;20194;-84
2023/12/04 03:40:56;;;;;;;18.45;10.13;;;;;;;;;;4965564;29;20218;-83
2023/12/04 03:44:01;;;;;;;19.92;10.35;;;;;;;;;;4954278;29;20195;-83
2023/12/04 03:47:05;;;;;;;18.95;10.80;;;;;;;;;;4966119;29;20659;-83
2023/12/04 03:50:09;;;;;;;20.92;10.38;;;;;;;;;;4964666;29;20258;-83
2023/12/04 03:53:14;;;;;;;19.48;9.90;;;;;;;;;;4954410;29;20260;-83
2023/12/04 03:56:18;;;;;;;18.67;9.40;;;;;;;;;;4954486;29;20186;-83
2023/12/04 03:59:22;;;;;;;17.42;9.63;;;;;;;;;;4953872;29;20191;-83
2023/12/04 04:02:27;;;;;;;19.48;10.10;;;;;;;;;;4953930;29;20192;-84
2023/12/04 04:05:34;;;;;;;20.55;10.65;;;;;;;;;;4965302;29;20195;-83
2023/12/04 04:08:38;;;;;;;17.10;9.73;;;;;;;;;;4965139;29;20195;-83
2023/12/04 04:11:42;;;;;;;17.13;9.88;;;;;;;;;;4964750;29;20223;-84
2023/12/04 04:14:47;;;;;;;19.88;10.27;;;;;;;;;;4964345;29;20193;-84
2023/12/04 04:17:52;;;;;;;14.10;9.35;;;;;;;;;;4964925;29;20214;-83
2023/12/04 04:20:56;;;;;;;16.42;9.75;;;;;;;;;;4964046;29;20223;-84
2023/12/04 04:24:00;;;;;;;18.13;9.77;;;;;;;;;;4964291;29;20187;-83
2023/12/04 04:27:04;;;;;;;22.58;10.98;;;;;;;;;;4963410;29;20187;-83
2023/12/04 04:30:09;;;;;;;19.70;10.25;;;;;;;;;;4963709;29;20241;-84
2023/12/04 04:33:13;;;;;;;17.38;9.90;;;;;;;;;;4965384;28;20190;-84
2023/12/04 04:36:17;;;;;;;20.75;10.55;;;;;;;;;;4968401;29;20192;-83
2023/12/04 04:39:23;;;;;;;18.55;10.50;;;;;;;;;;4971784;29;20190;-84
2023/12/04 04:42:27;;;;;;;20.15;10.48;;;;;;;;;;4972389;29;20194;-83
2023/12/04 04:45:31;;;;;;;20.25;10.82;;;;;;;;;;4956149;29;20190;-84
2023/12/04 04:48:35;;;;;;;19.65;10.80;;;;;;;;;;4967053;29;20195;-84
2023/12/04 04:51:40;;;;;;;23.02;10.98;;;;;;;;;;4968032;29;20219;-84
2023/12/04 04:54:44;;;;;;;20.52;11.43;;;;;;;;;;4957005;29;20656;-83
2023/12/04 04:57:48;;;;;;;20.38;10.52;;;;;;;;;;4955413;29;20190;-83
2023/12/04 05:00:53;;;;;;;18.02;9.90;;;;;;;;;;4955782;29;20228;-84
2023/12/04 05:03:57;;;;;;;20.42;10.13;;;;;;;;;;4967836;29;20187;-84
2023/12/04 05:07:01;;;;;;;20.65;9.98;;;;;;;;;;4956528;29;20190;-83
2023/12/04 05:10:06;;;;;;;20.48;9.73;;;;;;;;;;4956154;28;20222;-84
2023/12/04 05:13:10;;;;;;;19.65;10.98;;;;;;;;;;4967623;29;20180;-84
2023/12/04 05:16:15;;;;;;;20.35;10.68;;;;;;;;;;4966418;29;20195;-83
2023/12/04 05:19:19;;;;;;;23.42;11.05;;;;;;;;;;4966653;29;20195;-83
2023/12/04 05:22:23;;;;;;;23.05;11.15;;;;;;;;;;4954869;29;20191;-84
2023/12/04 05:25:28;;;;;;;21.63;10.23;;;;;;;;;;4954122;29;20198;-83
2023/12/04 05:28:33;;;;;;;21.25;10.25;;;;;;;;;;4965561;29;20644;-83
2023/12/04 05:31:37;;;;;;;20.35;9.68;;;;;;;;;;4966364;29;20723;-83
2023/12/04 05:34:41;;;;;;;18.50;10.38;;;;;;;;;;4966109;29;20191;-84
2023/12/04 05:37:46;;;;;;;20.77;10.25;;;;;;;;;;4966463;29;20195;-83
2023/12/04 05:40:50;;;;;;;18.58;10.73;;;;;;;;;;4965608;29;20222;-85
2023/12/04 05:43:54;;;;;;;19.88;11.18;;;;;;;;;;4952904;28;20186;-83
2023/12/04 05:46:59;;;;;;;17.73;10.20;;;;;;;;;;4953574;29;20194;-83
2023/12/04 05:50:03;;;;;;;20.73;11.20;;;;;;;;;;4964425;29;20218;-84
2023/12/04 05:53:08;;;;;;;21.52;11.02;;;;;;;;;;4953109;29;20191;-85
2023/12/04 05:56:12;;;;;;;21.17;10.40;;;;;;;;;;4952520;29;20187;-83
2023/12/04 05:59:16;;;;;;;18.88;9.65;;;;;;;;;;4963466;29;20195;-85
2023/12/04 06:02:21;;;;;;;18.92;10.52;;;;;;;;;;4942390;29;20180;-83
2023/12/04 06:05:25;;;;;;;20.25;10.07;;;;;;;;;;4952832;29;20191;-83
2023/12/04 06:08:29;;;;;;;21.67;10.63;;;;;;;;;;4952731;29;20199;-84
2023/12/04 06:11:33;;;;;;;22.00;11.55;;;;;;;;;;4951741;29;20308;-84
2023/12/04 06:14:38;;;;;;;21.90;11.23;;;;;;;;;;4963583;29;20190;-83
2023/12/04 06:17:42;;;;;;;20.95;11.18;;;;;;;;;;4952189;29;20648;-83
2023/12/04 06:20:46;;;;;;;21.08;12.02;;;;;;;;;;4963627;29;20218;-83
2023/12/04 06:23:51;;;;;;;15.48;8.23;;;;;;;;;;4939663;29;20207;-82
2023/12/04 06:26:55;;;;;;;25.17;13.00;;;;;;;;;;4961632;29;20188;-86
2023/12/04 06:30:00;;;;;;;22.70;12.20;;;;;;;;;;4961882;29;20223;-82
2023/12/04 06:33:05;;;;;;;22.67;11.20;;;;;;;;;;4962263;29;20191;-84
2023/12/04 06:36:12;;;;;;;18.05;10.57;;;;;;;;;;4963146;29;20214;-84
2023/12/04 06:39:17;;;;;;;22.15;12.13;;;;;;;;;;4951938;29;20191;-83
2023/12/04 06:42:21;;;;;;;22.75;12.57;;;;;;;;;;4951874;29;20252;-83
2023/12/04 06:45:26;;;;;;;26.92;13.02;;;;;;;;;;4963501;29;20187;-83
2023/12/04 06:48:31;;;;;;;24.38;12.23;;;;;;;;;;4963297;29;20195;-83
2023/12/04 06:51:35;;;;;;;24.83;12.60;;;;;;;;;;4963748;29;20238;-83
2023/12/04 06:54:39;;;;;;;21.10;11.10;;;;;;;;;;4960981;29;20190;-84
2023/12/04 06:57:45;;;;;;;21.55;11.32;;;;;;;;;;4964195;29;20556;-83
2023/12/04 07:00:49;;;;;;;20.13;12.02;;;;;;;;;;4963255;29;20227;-83
2023/12/04 07:03:53;;;;;;;22.55;12.80;;;;;;;;;;4963520;29;20211;-84
2023/12/04 07:07:00;;;;;;;20.05;11.38;;;;;;;;;;4962818;29;20198;-85
2023/12/04 07:10:05;;;;;;;22.33;12.45;;;;;;;;;;4963490;29;20230;-83
2023/12/04 07:13:09;;;;;;;24.15;10.63;;;;;;;;;;4964708;29;20191;-83
2023/12/04 07:16:13;;;;;;;22.52;10.98;;;;;;;;;;4965070;29;20191;-85
2023/12/04 07:19:18;;;;;;;20.25;10.27;;;;;;;;;;4964246;29;20182;-83
2023/12/04 07:22:21;;;;;;;18.52;10.25;;;;;;;;;;4964131;29;20260;-84
2023/12/04 07:25:26;;;;;;;21.92;11.32;;;;;;;;;;4965525;29;20194;-83
2023/12/04 07:28:31;;;;;;;20.95;10.73;;;;;;;;;;4965928;29;20186;-83
2023/12/04 07:31:35;;;;;;;19.15;10.85;;;;;;;;;;4964968;29;20234;-84
2023/12/04 07:34:39;;;;;;;19.92;10.68;;;;;;;;;;4954421;29;20664;-84
2023/12/04 07:37:44;;;;;;;20.63;12.20;;;;;;;;;;4961285;29;20198;-85
2023/12/04 07:40:48;;;;;;;28.02;10.88;;;;;;;;;;4948776;29;20234;-84
2023/12/04 07:43:52;;;;;;;25.55;11.68;;;;;;;;;;4960388;29;20193;-84
2023/12/04 07:46:57;;;;;;;29.17;12.25;;;;;;;;;;4970183;28;20215;-84
2023/12/04 07:50:02;;;;;;;19.65;10.65;;;;;;;;;;4938596;29;20194;-84
2023/12/04 07:53:09;;;;;;;22.40;11.60;;;;;;;;;;4959952;29;20194;-84
2023/12/04 07:56:14;;;;;;;21.48;11.48;;;;;;;;;;4959793;29;20187;-84
2023/12/04 07:59:18;;;;;;;24.48;13.15;;;;;;;;;;4960057;29;20187;-83
2023/12/04 08:02:23;;;;;;;15.10;8.40;;;;;;;;;;4954226;29;20183;-81
2023/12/04 08:05:53;;;;;;;26.20;13.57;;;;;;;;;;4959167;29;20637;-85
2023/12/04 08:08:59;;;;;;;20.63;12.25;;;;;;;;;;4952430;29;20190;-84
2023/12/04 08:12:03;;;;;;;23.10;11.98;;;;;;;;;;4962897;28;20242;-83
2023/12/04 08:15:08;;;;;;;22.35;12.85;;;;;;;;;;4954286;29;20198;-84
2023/12/04 08:18:12;;;;;;;23.65;12.77;;;;;;;;;;4968596;29;20194;-83
2023/12/04 08:21:16;;;;;;;24.35;12.25;;;;;;;;;;4956755;29;20218;-83
2023/12/04 08:24:21;;;;;;;26.23;13.07;;;;;;;;;;4967736;29;20186;-84
2023/12/04 08:27:26;;;;;;;24.38;13.82;;;;;;;;;;4968081;29;20198;-84
2023/12/04 08:30:31;;;;;;;27.90;15.30;;;;;;;;;;4958225;29;20242;-83
2023/12/04 08:33:35;;;;;;;24.42;14.45;;;;;;;;;;4968514;29;20190;-84
2023/12/04 08:36:39;;;;;;;27.15;15.43;;;;;;;;;;4969311;29;20190;-84
2023/12/04 08:39:43;;;;;;;29.02;15.10;;;;;;;;;;4955335;29;20195;-83
2023/12/04 08:42:47;;;;;;;25.42;13.40;;;;;;;;;;4965831;29;20553;-84
2023/12/04 08:45:52;;;;;;;26.85;15.23;;;;;;;;;;4967667;29;20211;-84
2023/12/04 08:48:56;;;;;;;28.20;15.20;;;;;;;;;;4956557;29;20194;-84
2023/12/04 08:52:00;;;;;;;29.77;13.88;;;;;;;;;;4967172;29;20234;-83
2023/12/04 08:55:07;;;;;;;23.38;12.20;;;;;;;;;;4968213;29;20203;-83
2023/12/04 08:58:11;;;;;;;27.60;12.90;;;;;;;;;;4966571;29;20191;-84
2023/12/04 09:01:16;;;;;;;23.38;12.63;;;;;;;;;;4966008;29;20215;-83
2023/12/04 09:04:20;;;;;;;19.48;10.73;;;;;;;;;;4956201;29;20186;-83
2023/12/04 09:07:24;;;;;;;18.33;10.00;;;;;;;;;;4944318;29;20544;-83
2023/12/04 09:10:28;;;;;;;21.20;11.50;;;;;;;;;;4954476;28;20238;-84
2023/12/04 09:13:33;;;;;;;21.23;11.27;;;;;;;;;;4966609;29;20542;-83
2023/12/04 09:16:37;;;;;;;26.37;13.57;;;;;;;;;;4966749;29;20576;-84
2023/12/04 09:19:42;;;;;;;26.53;14.57;;;;;;;;;;4954756;29;21093;-84
2023/12/04 09:22:46;;;;;;;22.27;12.37;;;;;;;;;;4940371;29;20566;-85
2023/12/04 09:25:50;;;;;;;17.90;10.37;;;;;;;;;;4950973;29;20550;-84
2023/12/04 09:28:54;;;;;;;17.67;10.77;;;;;;;;;;4950992;29;20550;-83
2023/12/04 09:31:59;;;;;;;26.40;15.00;;;;;;;;;;4939964;29;20661;-83
2023/12/04 09:35:03;;;;;;;27.37;15.17;;;;;;;;;;4951491;29;20547;-83
2023/12/04 09:38:08;;;;;;;25.93;14.60;;;;;;;;;;4951625;29;20562;-85
2023/12/04 09:41:12;;;;;;;29.63;16.17;;;;;;;;;;4951440;29;20631;-84
2023/12/04 09:44:17;;;;;;;34.90;19.20;;;;;;;;;;4951085;29;20539;-84
2023/12/04 09:47:22;;;;;;;31.77;18.87;;;;;;;;;;4951694;29;20551;-84
2023/12/04 09:50:27;;;;;;;55.30;27.67;;;;;;;;;;4962980;29;20625;-84
2023/12/04 09:53:33;;;;;;;193.23;66.77;;;;;;;;;;4950452;29;20551;-85
2023/12/04 09:56:37;;;;;;;49.77;23.67;;;;;;;;;;4951186;29;20566;-84
2023/12/04 09:59:44;;;;;;;32.67;18.87;;;;;;;;;;4951581;29;20559;-84
2023/12/04 10:02:48;;;;;;;117.23;43.07;;;;;;;;;;4963064;29;20550;-84
2023/12/04 10:05:54;;;;;;;143.73;52.67;;;;;;;;;;4940309;29;20547;-83
2023/12/04 10:08:58;;;;;;;96.30;37.77;;;;;;;;;;4962723;28;20554;-84
2023/12/04 10:12:02;;;;;;;49.33;24.10;;;;;;;;;;4962868;28;20685;-84
2023/12/04 10:15:11;;;;;;;30.20;17.17;;;;;;;;;;4962446;29;20901;-83
2023/12/04 10:18:26;;;;;;;29.03;16.50;;;;;;;;;;4961545;29;21119;-84
2023/12/04 10:21:33;;;;;;;29.33;16.90;;;;;;;;;;4951391;29;21000;-84
2023/12/04 10:24:38;;;;;;;29.53;16.40;;;;;;;;;;4962225;29;20904;-84
2023/12/04 10:27:43;;;;;;;37.97;20.83;;;;;;;;;;4951099;29;20554;-84
2023/12/04 10:30:48;;;;;;;29.27;16.23;;;;;;;;;;4939587;29;20629;-83
2023/12/04 10:33:52;;;;;;;27.13;15.60;;;;;;;;;;4962159;29;20551;-84
2023/12/04 10:36:59;;;;;;;27.10;15.73;;;;;;;;;;4961306;29;20924;-84
2023/12/04 10:40:08;;;;;;;28.00;15.67;;;;;;;;;;4950574;29;20551;-85
2023/12/04 10:43:19;;;;;;;33.00;16.90;;;;;;;;;;4962912;29;20547;-84
2023/12/04 10:46:27;;;;;;;30.63;17.07;;;;;;;;;;4950212;29;20555;-84
2023/12/04 10:49:33;;;;;;;33.10;17.50;;;;;;;;;;4962044;29;20551;-83
2023/12/04 10:52:40;;;;;;;31.43;18.10;;;;;;;;;;4962047;29;20602;-84
2023/12/04 10:55:45;;;;;;;35.47;17.37;;;;;;;;;;4939598;29;20551;-84
2023/12/04 10:58:51;;;;;;;19.47;11.77;;;;;;;;;;4960439;28;20555;-86
2023/12/04 11:01:55;;;;;;;23.40;12.20;;;;;;;;;;4948439;29;21210;-84
2023/12/04 11:05:14;;;;;;;16.43;9.80;;;;;;;;;;4949895;29;20897;-85
2023/12/04 11:08:19;;;;;;;14.30;9.13;;;;;;;;;;4961427;29;20548;-87
2023/12/04 11:11:32;;;;;;;14.73;9.03;;;;;;;;;;4961321;29;20681;-85
2023/12/04 11:14:42;;;;;;;17.27;9.17;;;;;;;;;;4960352;29;20547;-84
2023/12/04 11:17:51;;;;;;;17.80;10.10;;;;;;;;;;4962121;29;20547;-86
2023/12/04 11:20:58;;;;;;;14.67;9.17;;;;;;;;;;4955994;29;20650;-85
2023/12/04 11:24:03;;;;;;;15.20;9.83;;;;;;;;;;4949801;29;20559;-84
2023/12/04 11:27:08;;;;;;;15.53;8.83;;;;;;;;;;4960828;29;20555;-83
2023/12/04 11:30:13;;;;;;;17.00;10.43;;;;;;;;;;4962451;29;20630;-85
2023/12/04 11:33:18;;;;;;;15.93;9.87;;;;;;;;;;4950758;29;20602;-84
2023/12/04 11:36:22;;;;;;;13.87;9.30;;;;;;;;;;4950102;29;20568;-83
2023/12/04 11:39:26;;;;;;;15.73;10.13;;;;;;;;;;4960059;29;20566;-83
2023/12/04 11:42:30;;;;;;;18.90;10.53;;;;;;;;;;4949991;29;20906;-83
2023/12/04 11:45:39;;;;;;;14.57;9.23;;;;;;;;;;4960809;29;20570;-83
2023/12/04 11:48:43;;;;;;;17.37;10.57;;;;;;;;;;4960831;29;21113;-83
2023/12/04 11:51:51;;;;;;;16.67;9.60;;;;;;;;;;4960668;29;20661;-83
2023/12/04 11:54:58;;;;;;;17.57;10.17;;;;;;;;;;4960468;29;20567;-83
2023/12/04 11:58:09;;;;;;;17.13;10.00;;;;;;;;;;4937762;29;20546;-84
2023/12/04 12:01:17;;;;;;;15.13;9.10;;;;;;;;;;4961122;29;20621;-84
2023/12/04 12:04:21;;;;;;;16.10;8.80;;;;;;;;;;4960445;29;20552;-85
2023/12/04 12:07:26;;;;;;;14.50;8.80;;;;;;;;;;4960508;28;20539;-84
2023/12/04 12:10:30;;;;;;;15.93;9.63;;;;;;;;;;4960492;29;20653;-84
2023/12/04 12:13:35;;;;;;;14.50;8.47;;;;;;;;;;4960804;29;20603;-83
2023/12/04 12:16:39;;;;;;;16.60;8.80;;;;;;;;;;4961199;29;21106;-83
2023/12/04 12:19:43;;;;;;;13.47;8.60;;;;;;;;;;4970390;28;20561;-83
2023/12/04 12:22:49;;;;;;;14.43;9.07;;;;;;;;;;4959627;29;20549;-85
2023/12/04 12:25:53;;;;;;;15.60;9.47;;;;;;;;;;4948333;29;20555;-85
2023/12/04 12:28:57;;;;;;;13.67;8.60;;;;;;;;;;4948264;29;20549;-85
2023/12/04 12:32:03;;;;;;;13.83;8.83;;;;;;;;;;4947924;29;20651;-86
2023/12/04 12:35:11;;;;;;;15.73;9.20;;;;;;;;;;4938081;29;20555;-86
2023/12/04 12:38:15;;;;;;;18.80;9.73;;;;;;;;;;4959436;29;20563;-86
2023/12/04 12:41:20;;;;;;;15.57;9.37;;;;;;;;;;4959261;29;20644;-87
2023/12/04 12:44:24;;;;;;;20.77;12.00;;;;;;;;;;4959712;29;20539;-85
2023/12/04 12:47:29;;;;;;;17.33;10.50;;;;;;;;;;4948887;29;20574;-86
2023/12/04 12:50:34;;;;;;;18.23;10.67;;;;;;;;;;4959862;29;20634;-84
2023/12/04 12:53:38;;;;;;;17.17;10.93;;;;;;;;;;4959997;28;20956;-84
2023/12/04 12:56:43;;;;;;;19.00;11.07;;;;;;;;;;4966336;29;20546;-84
2023/12/04 12:59:47;;;;;;;19.20;11.63;;;;;;;;;;4963224;29;20577;-85
2023/12/04 13:02:53;;;;;;;21.43;13.87;;;;;;;;;;4963628;29;20546;-83
2023/12/04 13:05:57;;;;;;;56.50;31.47;;;;;;;;;;4951083;29;20554;-83
2023/12/04 13:09:01;;;;;;;44.47;29.87;;;;;;;;;;4951290;29;20547;-83
2023/12/04 13:12:06;;;;;;;31.67;19.50;;;;;;;;;;4962900;28;20677;-83
2023/12/04 13:15:11;;;;;;;31.40;17.33;;;;;;;;;;4962542;29;20551;-83
2023/12/04 13:18:15;;;;;;;24.27;16.97;;;;;;;;;;4962522;29;20551;-83
2023/12/04 13:21:20;;;;;;;27.90;15.27;;;;;;;;;;4963538;29;20637;-84
2023/12/04 13:24:24;;;;;;;26.33;15.03;;;;;;;;;;4963382;29;21099;-84
2023/12/04 13:27:28;;;;;;;24.47;12.90;;;;;;;;;;4951524;29;20555;-84
2023/12/04 13:30:34;;;;;;;19.67;11.87;;;;;;;;;;4961769;29;20626;-84
2023/12/04 13:33:39;;;;;;;20.03;10.97;;;;;;;;;;4950980;29;20610;-85
2023/12/04 13:36:43;;;;;;;21.07;11.90;;;;;;;;;;4963119;29;20570;-84
2023/12/04 13:39:49;;;;;;;15.20;9.43;;;;;;;;;;4951417;29;20559;-84
2023/12/04 13:46:16;;;;;;;15.87;9.27;;;;;;;;;;4962712;29;20552;-84
2023/12/04 13:49:20;;;;;;;16.43;9.27;;;;;;;;;;4960977;29;20559;-84
2023/12/04 13:52:24;;;;;;;17.30;10.13;;;;;;;;;;4961955;29;20598;-84
2023/12/04 13:55:47;;;;;;;19.17;10.47;;;;;;;;;;4962094;29;20554;-84
2023/12/04 13:58:58;;;;;;;19.83;9.77;;;;;;;;;;4960846;29;21113;-84
2023/12/04 14:02:04;;;;;;;17.80;11.30;;;;;;;;;;4961097;29;20622;-84
2023/12/04 14:05:08;;;;;;;14.87;9.47;;;;;;;;;;4960837;28;20555;-85
2023/12/04 14:08:12;;;;;;;16.63;10.40;;;;;;;;;;4950228;29;20576;-83
2023/12/04 14:11:16;;;;;;;21.47;11.10;;;;;;;;;;4961884;29;20649;-84
2023/12/04 14:14:20;;;;;;;15.37;9.83;;;;;;;;;;4950285;29;20539;-84
2023/12/04 14:17:24;;;;;;;17.03;10.17;;;;;;;;;;4961972;29;20550;-83
2023/12/04 14:20:29;;;;;;;16.00;10.00;;;;;;;;;;4960740;29;20629;-83
2023/12/04 14:23:34;;;;;;;17.23;11.33;;;;;;;;;;4961343;29;20566;-85
2023/12/04 14:26:38;;;;;;;16.27;10.20;;;;;;;;;;4960877;29;20559;-83
2023/12/04 14:29:42;;;;;;;17.60;10.70;;;;;;;;;;4939036;29;20555;-84
2023/12/04 14:32:46;;;;;;;19.73;10.67;;;;;;;;;;4939067;29;20602;-84
2023/12/04 14:35:51;;;;;;;19.67;10.47;;;;;;;;;;4962030;29;20555;-85
2023/12/04 14:38:55;;;;;;;18.97;10.63;;;;;;;;;;4961053;29;20620;-84
2023/12/04 14:41:59;;;;;;;17.90;10.13;;;;;;;;;;4961176;29;20749;-84
2023/12/04 14:45:04;;;;;;;17.30;11.17;;;;;;;;;;4960337;29;20547;-85
2023/12/04 14:48:11;;;;;;;21.50;11.77;;;;;;;;;;4960153;29;20547;-84
2023/12/04 14:51:15;;;;;;;57.87;28.10;;;;;;;;;;4960237;29;20630;-84
2023/12/04 14:54:37;;;;;;;27.23;13.80;;;;;;;;;;4960529;29;20598;-85
2023/12/04 15:01:28;;;;;;;44.93;20.33;;;;;;;;;;4961096;29;20626;-85
2023/12/04 15:08:44;;;;;;;17.77;10.73;;;;;;;;;;4959938;29;20889;-84
2023/12/04 15:11:36;;;;;;;23.27;11.17;;;;;;;;;;4960156;28;21254;-84
2023/12/04 15:15:01;;;;;;;19.13;11.43;;;;;;;;;;4960494;29;21096;-86
2023/12/04 15:21:28;;;;;;;18.83;11.47;;;;;;;;;;4960862;29;20631;-84
2023/12/04 15:24:33;;;;;;;17.00;10.13;;;;;;;;;;4949279;29;20551;-84
2023/12/04 15:27:37;;;;;;;15.93;10.10;;;;;;;;;;4938548;29;20542;-84
2023/12/04 15:30:41;;;;;;;18.97;11.53;;;;;;;;;;4939515;29;20622;-84
2023/12/04 15:33:45;;;;;;;18.60;11.20;;;;;;;;;;4961912;29;21012;-85
2023/12/04 15:36:50;;;;;;;17.23;10.67;;;;;;;;;;4961771;29;20554;-85
2023/12/04 15:39:54;;;;;;;18.43;10.20;;;;;;;;;;4949469;29;20548;-85
2023/12/04 15:42:58;;;;;;;20.70;10.47;;;;;;;;;;4960688;29;20908;-85
2023/12/04 15:46:02;;;;;;;17.63;10.53;;;;;;;;;;4961075;29;20566;-84
2023/12/04 15:49:07;;;;;;;21.03;10.70;;;;;;;;;;4961361;29;20546;-84
2023/12/04 15:52:11;;;;;;;17.00;10.17;;;;;;;;;;4949306;29;20626;-85
2023/12/04 15:55:16;;;;;;;18.73;10.47;;;;;;;;;;4949984;29;20547;-84
2023/12/04 15:58:21;;;;;;;19.70;10.87;;;;;;;;;;4961612;29;20554;-84
2023/12/04 16:01:25;;;;;;;22.23;11.20;;;;;;;;;;4949281;29;20630;-85
2023/12/04 16:04:31;;;;;;;19.60;12.10;;;;;;;;;;4949922;29;21083;-84
2023/12/04 16:07:35;;;;;;;20.17;10.87;;;;;;;;;;4960535;29;20546;-84
2023/12/04 16:10:40;;;;;;;21.47;12.60;;;;;;;;;;4961087;28;21023;-85
2023/12/04 16:13:44;;;;;;;23.60;11.93;;;;;;;;;;4938744;29;20602;-85
2023/12/04 16:16:48;;;;;;;26.03;13.23;;;;;;;;;;4960491;29;20578;-84
2023/12/04 16:19:55;;;;;;;21.53;12.20;;;;;;;;;;4960198;29;20547;-85
2023/12/04 16:22:59;;;;;;;20.93;12.73;;;;;;;;;;4960254;29;20546;-84
2023/12/04 16:26:06;;;;;;;23.13;12.23;;;;;;;;;;4949503;29;20913;-84
2023/12/04 16:29:10;;;;;;;19.37;12.17;;;;;;;;;;4962808;28;21091;-84
2023/12/04 16:32:14;;;;;;;22.53;12.40;;;;;;;;;;4963864;29;20650;-84
2023/12/04 16:35:18;;;;;;;22.60;12.83;;;;;;;;;;4953238;29;20531;-86
2023/12/04 16:38:22;;;;;;;23.90;13.20;;;;;;;;;;4963511;29;20554;-84
2023/12/04 16:41:27;;;;;;;23.77;13.43;;;;;;;;;;4964821;29;20629;-84
2023/12/04 16:44:31;;;;;;;23.13;12.70;;;;;;;;;;4963078;29;20539;-85
2023/12/04 16:47:35;;;;;;;21.33;11.63;;;;;;;;;;4963888;29;20555;-85
2023/12/04 16:50:40;;;;;;;22.80;13.43;;;;;;;;;;4974424;28;21218;-84
2023/12/04 16:53:44;;;;;;;22.57;12.90;;;;;;;;;;4963627;29;20606;-84
2023/12/04 16:56:49;;;;;;;21.17;12.70;;;;;;;;;;4951443;29;20558;-84
2023/12/04 16:59:53;;;;;;;23.03;12.17;;;;;;;;;;4962686;29;20562;-83
2023/12/04 17:02:57;;;;;;;23.00;13.17;;;;;;;;;;4962131;29;20546;-84
2023/12/04 17:06:02;;;;;;;24.73;11.87;;;;;;;;;;4961694;29;20550;-85
2023/12/04 17:09:06;;;;;;;20.53;12.93;;;;;;;;;;4961205;29;20554;-84
2023/12/04 17:12:10;;;;;;;20.07;11.87;;;;;;;;;;4939471;29;20665;-84
2023/12/04 17:15:15;;;;;;;21.20;12.10;;;;;;;;;;4939807;29;20901;-84
2023/12/04 17:18:20;;;;;;;22.73;12.33;;;;;;;;;;4962159;29;20554;-84
2023/12/04 17:21:24;;;;;;;20.37;12.23;;;;;;;;;;4938712;29;20622;-85
2023/12/04 17:24:28;;;;;;;23.10;12.47;;;;;;;;;;4961086;29;20543;-84
2023/12/04 17:27:32;;;;;;;22.07;11.97;;;;;;;;;;4949883;29;20551;-84
2023/12/04 17:30:37;;;;;;;23.30;13.53;;;;;;;;;;4972787;23;20684;-84
2023/12/04 17:33:42;;;;;;;24.80;13.27;;;;;;;;;;4981063;28;20597;-86
2023/12/04 17:36:47;;;;;;;27.67;13.37;;;;;;;;;;4980159;28;20569;-85
2023/12/04 17:39:51;;;;;;;24.30;12.87;;;;;;;;;;4979384;28;20546;-85
2023/12/04 17:42:55;;;;;;;24.20;13.03;;;;;;;;;;4969884;28;20546;-86
2023/12/04 17:45:59;;;;;;;22.07;12.53;;;;;;;;;;4979962;28;20562;-84
2023/12/04 17:49:04;;;;;;;21.57;12.87;;;;;;;;;;4980547;28;20554;-84
2023/12/04 17:52:08;;;;;;;22.43;12.60;;;;;;;;;;4979221;28;20628;-84
2023/12/04 17:55:12;;;;;;;24.10;13.03;;;;;;;;;;4967837;28;20944;-85
2023/12/04 17:58:16;;;;;;;23.67;14.27;;;;;;;;;;4978841;28;20546;-85
2023/12/04 18:01:20;;;;;;;22.87;13.50;;;;;;;;;;4978788;28;20624;-85
2023/12/04 18:04:25;;;;;;;26.90;14.60;;;;;;;;;;4958585;28;20900;-85
2023/12/04 18:07:29;;;;;;;26.53;13.67;;;;;;;;;;4969056;28;20545;-85
2023/12/04 18:10:33;;;;;;;21.23;12.47;;;;;;;;;;4979971;28;20625;-84
2023/12/04 18:13:38;;;;;;;24.20;13.50;;;;;;;;;;4980223;28;20601;-83